createdAt,value
2022-10-05T00:01:30.120Z,9.71
2022-10-05T00:04:03.300Z,9.80
2022-10-05T00:06:31.650Z,9.66
2022-10-05T00:09:01.971Z,9.52
2022-10-05T00:11:31.267Z,9.44
2022-10-05T00:13:59.444Z,9.64
2022-10-05T00:16:27.719Z,9.85
2022-10-05T00:18:55.635Z,10.07
2022-10-05T00:21:26.115Z,10.18
2022-10-05T00:23:57.363Z,10.23
2022-10-05T00:26:27.980Z,10.16
2022-10-05T00:28:57.497Z,10.02
2022-10-05T00:31:31.893Z,9.68
2022-10-05T00:34:03.228Z,9.51
2022-10-05T00:36:31.477Z,9.33
2022-10-05T00:39:02.651Z,9.19
2022-10-05T00:41:45.889Z,9.11
2022-10-05T00:44:31.472Z,9.01
2022-10-05T00:47:10.720Z,8.96
2022-10-05T00:50:05.941Z,9.05
2022-10-05T00:52:40.942Z,9.15
2022-10-05T00:55:14.538Z,9.23
2022-10-05T00:57:49.048Z,9.36
2022-10-05T01:00:21.275Z,9.27
2022-10-05T01:02:58.561Z,9.21
2022-10-05T01:05:40.422Z,9.21
2022-10-05T01:08:21.923Z,9.27
2022-10-05T01:11:00.215Z,9.36
2022-10-05T01:13:35.794Z,9.37
2022-10-05T01:16:11.469Z,9.51
2022-10-05T01:18:51.421Z,9.71
2022-10-05T01:21:22.449Z,9.77
2022-10-05T01:24:37.134Z,9.73
2022-10-05T01:27:16.448Z,9.79
2022-10-05T01:29:51.966Z,9.77
2022-10-05T01:32:26.302Z,9.68
2022-10-05T01:35:01.232Z,9.23
2022-10-05T01:37:40.170Z,8.89
2022-10-05T01:40:12.183Z,8.87
2022-10-05T01:42:55.353Z,9.02
2022-10-05T01:45:37.757Z,9.16
2022-10-05T01:48:10.638Z,9.28
2022-10-05T01:50:52.696Z,9.20
2022-10-05T01:53:33.076Z,8.94
2022-10-05T01:56:11.073Z,8.77
2022-10-05T01:58:45.605Z,8.92
2022-10-05T02:01:22.828Z,9.02
2022-10-05T02:04:00.481Z,8.90
2022-10-05T02:06:33.454Z,8.85
2022-10-05T02:09:08.333Z,8.80
2022-10-05T02:11:38.817Z,8.83
2022-10-05T02:14:12.299Z,8.87
2022-10-05T02:16:44.949Z,9.03
2022-10-05T02:19:19.147Z,9.15
2022-10-05T02:21:52.729Z,9.28
2022-10-05T02:24:26.248Z,9.38
2022-10-05T02:26:55.184Z,9.52
2022-10-05T02:29:27.006Z,9.47
2022-10-05T02:32:01.402Z,9.52
2022-10-05T02:34:38.317Z,9.55
2022-10-05T02:37:23.761Z,9.64
2022-10-05T02:42:56.136Z,9.52
2022-10-05T02:45:38.856Z,9.45
2022-10-05T02:48:27.570Z,9.40
2022-10-05T02:51:04.257Z,9.38
2022-10-05T02:53:39.842Z,9.33
2022-10-05T02:56:17.331Z,9.29
2022-10-05T02:58:51.428Z,9.24
2022-10-05T03:01:26.420Z,9.40
2022-10-05T03:04:08.248Z,9.56
2022-10-05T03:06:46.622Z,9.62
2022-10-05T03:09:18.789Z,9.59
2022-10-05T03:11:56.880Z,9.67
2022-10-05T03:14:32.593Z,9.66
2022-10-05T03:17:12.333Z,9.57
2022-10-05T03:19:56.664Z,9.51
2022-10-05T03:22:39.694Z,9.39
2022-10-05T03:25:40.124Z,9.28
2022-10-05T03:28:16.173Z,9.10
2022-10-05T03:30:52.380Z,9.04
2022-10-05T03:33:32.096Z,9.02
2022-10-05T03:36:08.452Z,8.91
2022-10-05T03:38:45.275Z,8.81
2022-10-05T03:41:22.921Z,8.70
2022-10-05T03:44:05.673Z,8.80
2022-10-05T03:46:48.316Z,8.70
2022-10-05T03:49:29.825Z,8.40
2022-10-05T03:52:05.429Z,8.23
2022-10-05T03:54:38.874Z,8.19
2022-10-05T03:57:12.339Z,8.35
2022-10-05T03:59:50.015Z,8.32
2022-10-05T04:02:25.714Z,8.17
2022-10-05T04:04:57.951Z,8.28
2022-10-05T04:07:39.280Z,8.59
2022-10-05T04:10:15.804Z,8.74
2022-10-05T04:12:48.610Z,8.78
2022-10-05T04:15:23.985Z,8.87
2022-10-05T04:17:59.296Z,8.85
2022-10-05T04:20:33.515Z,8.96
2022-10-05T04:23:08.977Z,8.98
2022-10-05T04:25:43.490Z,8.96
2022-10-05T04:28:18.220Z,9.51
2022-10-05T04:30:50.882Z,10.05
2022-10-05T04:33:19.402Z,10.37
2022-10-05T04:36:06.788Z,10.38
2022-10-05T04:50:39.265Z,10.40
2022-10-05T04:53:24.619Z,9.52
2022-10-05T04:55:59.192Z,9.52
2022-10-05T04:58:47.013Z,9.93
2022-10-05T05:01:30.042Z,10.17
2022-10-05T05:04:24.798Z,10.50
2022-10-05T05:07:05.429Z,10.88
2022-10-05T05:09:57.389Z,11.16
2022-10-05T05:12:37.163Z,11.43
2022-10-05T05:15:27.411Z,11.57
2022-10-05T05:18:22.995Z,11.60
2022-10-05T05:21:00.839Z,11.51
2022-10-05T05:23:37.694Z,10.84
2022-10-05T05:26:15.947Z,10.82
2022-10-05T05:28:51.352Z,10.52
2022-10-05T05:31:28.860Z,9.69
2022-10-05T05:34:05.669Z,9.52
2022-10-05T05:36:57.173Z,9.58
2022-10-05T05:39:28.801Z,9.92
2022-10-05T05:42:17.763Z,10.16
2022-10-05T05:44:51.433Z,10.28
2022-10-05T05:47:24.191Z,10.19
2022-10-05T05:50:07.352Z,10.07
2022-10-05T05:52:42.957Z,10.37
2022-10-05T05:55:19.907Z,10.83
2022-10-05T05:57:55.858Z,11.15
2022-10-05T06:00:27.802Z,11.49
2022-10-05T06:03:09.328Z,11.64
2022-10-05T06:05:43.236Z,11.73
2022-10-05T06:08:18.240Z,11.85
2022-10-05T06:10:54.264Z,12.03
2022-10-05T06:13:29.847Z,12.09
2022-10-05T06:16:02.694Z,12.21
2022-10-05T06:18:33.819Z,12.34
2022-10-05T06:21:10.603Z,12.36
2022-10-05T06:23:46.139Z,12.42
2022-10-05T06:26:31.498Z,12.53
2022-10-05T06:29:05.186Z,12.67
2022-10-05T06:31:58.746Z,12.93
2022-10-05T06:34:43.283Z,13.19
2022-10-05T06:37:20.231Z,13.52
2022-10-05T06:40:04.877Z,13.67
2022-10-05T06:42:56.498Z,13.71
2022-10-05T06:45:53.087Z,13.62
2022-10-05T06:48:59.632Z,13.50
2022-10-05T06:51:43.068Z,13.45
2022-10-05T06:54:32.866Z,13.53
2022-10-05T06:57:11.206Z,13.47
2022-10-05T06:59:48.395Z,13.36
2022-10-05T07:02:26.883Z,13.32
2022-10-05T07:05:45.787Z,13.49
2022-10-05T07:08:19.754Z,13.33
2022-10-05T07:11:04.919Z,13.42
2022-10-05T07:13:49.765Z,13.78
2022-10-05T07:16:30.671Z,14.04
2022-10-05T07:19:14.272Z,13.94
2022-10-05T07:21:46.320Z,14.46
2022-10-05T07:24:29.370Z,14.52
2022-10-05T07:27:08.728Z,14.50
2022-10-05T07:29:44.893Z,14.55
2022-10-05T07:32:28.824Z,14.89
2022-10-05T07:35:05.908Z,15.38
2022-10-05T07:37:57.850Z,15.08
2022-10-05T07:40:39.276Z,15.19
2022-10-05T07:43:20.566Z,15.16
2022-10-05T07:45:54.657Z,15.57
2022-10-05T07:48:29.131Z,15.77
2022-10-05T07:51:02.432Z,15.79
2022-10-05T07:53:37.631Z,15.76
2022-10-05T07:56:15.632Z,16.13
2022-10-05T07:58:48.326Z,16.79
2022-10-05T08:01:20.774Z,17.75
2022-10-05T08:03:57.155Z,17.89
2022-10-05T08:06:49.133Z,16.35
2022-10-05T08:09:33.561Z,16.97
2022-10-05T08:12:15.715Z,17.16
2022-10-05T08:14:52.648Z,16.98
2022-10-05T08:17:31.907Z,16.79
2022-10-05T08:20:18.296Z,15.81
2022-10-05T08:22:53.454Z,14.48
2022-10-05T08:25:26.482Z,14.97
2022-10-05T08:28:01.062Z,15.95
2022-10-05T08:30:32.558Z,16.71
2022-10-05T08:33:07.636Z,16.36
2022-10-05T08:35:39.570Z,16.72
2022-10-05T08:38:14.877Z,16.17
2022-10-05T08:41:07.065Z,15.58
2022-10-05T08:44:07.422Z,15.52
2022-10-05T08:47:08.024Z,15.78
2022-10-05T08:50:03.323Z,16.73
2022-10-05T08:52:32.271Z,17.91
2022-10-05T08:55:35.726Z,18.51
2022-10-05T08:58:26.943Z,18.47
2022-10-05T09:01:02.667Z,18.77
2022-10-05T09:03:59.020Z,19.23
2022-10-05T09:06:48.185Z,19.43
2022-10-05T09:09:35.400Z,19.23
2022-10-05T09:12:33.970Z,19.04
2022-10-05T09:15:25.978Z,19.59
2022-10-05T09:18:34.385Z,19.77
2022-10-05T09:21:09.745Z,19.68
2022-10-05T09:23:40.772Z,19.49
2022-10-05T09:26:13.447Z,19.66
2022-10-05T09:29:02.224Z,20.54
2022-10-05T09:31:53.375Z,21.29
2022-10-05T09:34:40.756Z,21.65
2022-10-05T09:37:46.269Z,21.64
2022-10-05T09:40:50.797Z,22.46
2022-10-05T09:43:34.727Z,22.75
2022-10-05T09:46:47.668Z,24.15
2022-10-05T09:49:50.522Z,23.94
2022-10-05T09:52:45.478Z,24.83
2022-10-05T09:55:41.850Z,24.91
2022-10-05T09:58:50.043Z,24.26
2022-10-05T10:01:33.704Z,24.22
2022-10-05T10:04:22.453Z,24.41
2022-10-05T10:07:25.514Z,24.48
2022-10-05T10:10:21.011Z,24.33
2022-10-05T10:13:07.575Z,25.11
2022-10-05T10:16:12.159Z,26.92
2022-10-05T10:19:06.851Z,27.12
2022-10-05T10:22:03.704Z,26.46
2022-10-05T10:24:59.686Z,26.42
2022-10-05T10:27:51.638Z,26.48
2022-10-05T10:30:40.571Z,27.82
2022-10-05T10:33:34.095Z,27.59
2022-10-05T10:36:13.264Z,28.40
2022-10-05T10:38:52.366Z,28.63
2022-10-05T10:41:52.310Z,28.97
2022-10-05T10:44:52.947Z,29.03
2022-10-05T10:47:40.275Z,28.96
2022-10-05T10:50:48.769Z,30.28
2022-10-05T10:53:33.677Z,30.01
2022-10-05T10:56:23.924Z,30.24
2022-10-05T10:59:41.469Z,29.17
2022-10-05T11:02:27.355Z,29.76
2022-10-05T11:05:27.014Z,29.93
2022-10-05T11:08:32.325Z,29.98
2022-10-05T11:11:22.576Z,30.07
2022-10-05T11:14:13.087Z,31.23
2022-10-05T11:17:04.082Z,29.66
2022-10-05T11:20:03.527Z,30.19
2022-10-05T11:22:46.570Z,30.52
2022-10-05T11:25:34.337Z,30.55
2022-10-05T11:28:20.217Z,28.71
2022-10-05T11:31:06.457Z,28.92
2022-10-05T11:33:56.095Z,29.42
2022-10-05T11:36:48.919Z,29.88
2022-10-05T11:39:58.833Z,31.98
2022-10-05T11:43:09.755Z,33.06
2022-10-05T11:45:54.517Z,32.44
2022-10-05T11:48:53.363Z,31.65
2022-10-05T11:51:51.074Z,31.58
2022-10-05T11:55:09.704Z,30.65
2022-10-05T11:57:48.960Z,29.46
2022-10-05T12:00:21.900Z,30.32
2022-10-05T12:03:24.521Z,31.42
2022-10-05T12:06:15.799Z,30.93
2022-10-05T12:08:56.899Z,30.80
2022-10-05T12:23:19.844Z,35.29
2022-10-05T12:25:54.625Z,36.46
2022-10-05T12:28:31.188Z,33.50
2022-10-05T12:31:13.004Z,32.02
2022-10-05T12:34:03.415Z,32.49
2022-10-05T12:39:44.240Z,32.30
2022-10-05T12:42:26.088Z,32.84
2022-10-05T12:45:08.964Z,33.86
2022-10-05T12:47:49.208Z,33.74
2022-10-05T12:50:31.667Z,34.78
2022-10-05T12:53:35.818Z,35.33
2022-10-05T12:56:12.618Z,33.60
2022-10-05T12:58:51.452Z,32.76
2022-10-05T13:01:29.821Z,32.86
2022-10-05T13:04:12.258Z,33.77
2022-10-05T13:06:47.224Z,33.04
2022-10-05T13:09:23.555Z,32.41
2022-10-05T13:11:56.603Z,32.53
2022-10-05T13:14:49.082Z,32.25
2022-10-05T13:17:26.836Z,32.72
2022-10-05T13:20:02.848Z,32.28
2022-10-05T13:22:37.898Z,32.32
2022-10-05T13:25:20.022Z,31.53
2022-10-05T13:27:57.174Z,32.12
2022-10-05T13:30:26.079Z,31.34
2022-10-05T13:33:03.694Z,31.73
2022-10-05T13:35:46.382Z,31.23
2022-10-05T13:38:26.634Z,31.90
2022-10-05T13:41:06.405Z,31.78
2022-10-05T13:43:45.893Z,31.51
2022-10-05T13:46:22.532Z,30.50
2022-10-05T13:49:02.754Z,30.07
2022-10-05T13:51:40.858Z,30.17
2022-10-05T13:54:18.592Z,30.32
2022-10-05T13:56:58.476Z,30.78
2022-10-05T13:59:33.831Z,30.90
2022-10-05T14:02:06.411Z,31.33
2022-10-05T14:04:46.726Z,31.74
2022-10-05T14:07:31.389Z,32.08
2022-10-05T14:10:02.783Z,32.57
2022-10-05T14:12:40.262Z,31.95
2022-10-05T14:15:22.661Z,31.17
2022-10-05T14:17:52.823Z,32.34
2022-10-05T14:20:26.098Z,33.82
2022-10-05T14:22:58.910Z,33.51
2022-10-05T14:25:28.024Z,33.18
2022-10-05T14:28:05.412Z,32.59
2022-10-05T14:30:35.044Z,32.64
2022-10-05T14:33:16.008Z,32.93
2022-10-05T14:35:49.538Z,33.10
2022-10-05T14:38:20.841Z,32.42
2022-10-05T14:41:04.868Z,32.20
2022-10-05T14:43:34.486Z,31.75
2022-10-05T14:46:25.387Z,31.53
2022-10-05T14:49:30.915Z,31.34
2022-10-05T14:51:59.764Z,31.74
2022-10-05T14:54:47.999Z,32.60
2022-10-05T14:57:29.189Z,34.23
2022-10-05T15:00:05.417Z,33.38
2022-10-05T15:03:04.495Z,32.50
2022-10-05T15:05:40.051Z,33.04
2022-10-05T15:08:18.751Z,32.76
2022-10-05T15:10:53.645Z,33.53
2022-10-05T15:13:30.507Z,33.88
2022-10-05T15:16:04.241Z,33.96
2022-10-05T15:18:43.823Z,33.95
2022-10-05T15:21:34.920Z,34.40
2022-10-05T15:24:09.370Z,35.17
2022-10-05T15:26:49.181Z,34.38
2022-10-05T15:29:42.586Z,32.65
2022-10-05T15:32:25.409Z,32.48
2022-10-05T15:35:27.300Z,32.95
2022-10-05T15:38:00.619Z,33.73
2022-10-05T15:40:35.080Z,34.44
2022-10-05T15:43:11.033Z,34.55
2022-10-05T15:45:54.037Z,33.95
2022-10-05T15:48:29.521Z,32.82
2022-10-05T15:51:07.274Z,32.41
2022-10-05T15:53:45.170Z,32.61
2022-10-05T15:56:21.567Z,32.17
2022-10-05T15:58:56.913Z,31.80
2022-10-05T16:01:49.866Z,31.68
2022-10-05T16:04:24.426Z,30.83
2022-10-05T16:07:18.341Z,29.52
2022-10-05T16:09:56.222Z,29.44
2022-10-05T16:12:36.707Z,28.88
2022-10-05T16:15:20.320Z,28.66
2022-10-05T16:18:14.675Z,28.28
2022-10-05T16:20:50.101Z,27.84
2022-10-05T16:23:39.044Z,27.63
2022-10-05T16:26:20.798Z,27.11
2022-10-05T16:28:59.317Z,25.99
2022-10-05T16:31:34.752Z,25.21
2022-10-05T16:34:17.549Z,24.61
2022-10-05T16:36:58.816Z,24.43
2022-10-05T16:39:45.832Z,24.23
2022-10-05T16:42:24.996Z,23.93
2022-10-05T16:45:01.155Z,23.48
2022-10-05T16:47:38.628Z,22.89
2022-10-05T16:50:20.303Z,22.41
2022-10-05T16:52:57.281Z,22.21
2022-10-05T16:55:35.880Z,21.93
2022-10-05T16:58:12.336Z,21.67
2022-10-05T17:00:58.395Z,21.32
2022-10-05T17:03:40.330Z,21.18
2022-10-05T17:06:28.050Z,21.19
2022-10-05T17:09:19.337Z,20.94
2022-10-05T17:12:04.310Z,20.84
2022-10-05T17:14:41.715Z,20.85
2022-10-05T17:17:34.602Z,20.69
2022-10-05T17:20:21.509Z,20.46
2022-10-05T17:22:55.168Z,20.49
2022-10-05T17:25:36.388Z,20.36
2022-10-05T17:28:24.531Z,20.30
2022-10-05T17:31:10.389Z,20.28
2022-10-05T17:34:26.710Z,20.15
2022-10-05T17:37:00.038Z,20.04
2022-10-05T17:39:50.804Z,20.00
2022-10-05T17:42:46.403Z,19.88
2022-10-05T17:46:00.715Z,19.85
2022-10-05T17:49:07.942Z,19.72
2022-10-05T17:52:13.127Z,19.60
2022-10-05T17:55:36.068Z,19.47
2022-10-05T17:58:39.918Z,19.17
2022-10-05T18:01:30.493Z,19.16
2022-10-05T18:04:26.364Z,19.08
2022-10-05T18:07:04.675Z,19.03
2022-10-05T18:09:52.528Z,19.07
2022-10-05T18:12:48.947Z,19.01
2022-10-05T18:15:48.901Z,18.85
2022-10-05T18:18:59.352Z,18.79
2022-10-05T18:21:38.263Z,18.90
2022-10-05T18:24:46.734Z,18.87
2022-10-05T18:27:51.368Z,18.82
2022-10-05T18:30:25.512Z,18.67
2022-10-05T18:33:32.211Z,18.65
2022-10-05T18:36:12.285Z,18.54
2022-10-05T18:38:53.818Z,18.49
2022-10-05T18:41:34.937Z,18.55
2022-10-05T18:44:27.322Z,18.58
2022-10-05T18:47:03.183Z,18.68
2022-10-05T18:49:47.711Z,18.68
2022-10-05T18:52:25.551Z,18.71
2022-10-05T18:55:06.892Z,18.70
2022-10-05T18:57:51.702Z,18.69
2022-10-05T19:00:21.895Z,18.68
2022-10-05T19:02:54.818Z,18.60
2022-10-05T19:05:47.570Z,18.58
2022-10-05T19:08:27.653Z,18.47
2022-10-05T19:11:05.924Z,18.51
2022-10-05T19:13:43.371Z,18.52
2022-10-05T19:16:47.660Z,18.59
2022-10-05T19:19:33.743Z,18.51
2022-10-05T19:22:08.908Z,18.57
2022-10-05T19:24:53.563Z,18.56
2022-10-05T19:27:35.314Z,18.63
2022-10-05T19:30:20.739Z,18.66
2022-10-05T19:33:15.211Z,18.67
2022-10-05T19:35:58.604Z,18.65
2022-10-05T19:38:33.893Z,18.58
2022-10-05T19:41:13.964Z,18.62
2022-10-05T19:44:07.214Z,18.60
2022-10-05T19:46:51.880Z,18.57
2022-10-05T19:49:42.404Z,18.62
2022-10-05T19:52:14.785Z,18.63
2022-10-05T19:54:43.594Z,18.55
2022-10-05T19:57:18.276Z,18.50
2022-10-05T19:59:58.673Z,18.47
2022-10-05T20:02:27.451Z,18.44
2022-10-05T20:05:08.536Z,18.43
2022-10-05T20:07:37.019Z,18.34
2022-10-05T20:10:29.353Z,18.35
2022-10-05T20:13:03.102Z,18.32
2022-10-05T20:15:55.325Z,18.28
2022-10-05T20:19:05.561Z,18.20
2022-10-05T20:21:47.932Z,18.15
2022-10-05T20:24:22.461Z,18.17
2022-10-05T20:27:16.133Z,18.17
2022-10-05T20:29:46.915Z,18.23
2022-10-05T20:32:19.198Z,18.19
2022-10-05T20:34:50.717Z,18.24
2022-10-05T20:37:20.689Z,18.14
2022-10-05T20:39:51.355Z,18.13
2022-10-05T20:42:21.250Z,18.07
2022-10-05T20:44:56.706Z,18.00
2022-10-05T20:47:27.884Z,17.96
2022-10-05T20:49:56.827Z,18.04
2022-10-05T20:52:25.123Z,18.05
2022-10-05T20:54:58.410Z,17.98
2022-10-05T20:57:26.939Z,17.83
2022-10-05T20:59:58.399Z,17.77
2022-10-05T21:02:29.542Z,17.75
2022-10-05T21:04:58.267Z,17.71
2022-10-05T21:07:26.721Z,17.61
2022-10-05T21:09:55.819Z,17.59
2022-10-05T21:12:23.983Z,17.55
2022-10-05T21:14:53.320Z,17.57
2022-10-05T21:17:22.580Z,17.59
2022-10-05T21:19:52.763Z,17.64
2022-10-05T21:22:20.984Z,17.66
2022-10-05T21:24:49.786Z,17.62
2022-10-05T21:27:18.029Z,17.64
2022-10-05T21:29:49.816Z,17.65
2022-10-05T21:32:18.001Z,17.68
2022-10-05T21:34:46.200Z,17.65
2022-10-05T21:37:15.649Z,17.63
2022-10-05T21:39:43.700Z,17.55
2022-10-05T21:42:11.659Z,17.59
2022-10-05T21:44:39.551Z,17.60
2022-10-05T21:47:08.203Z,17.53
2022-10-05T21:49:37.093Z,17.56
2022-10-05T21:52:06.003Z,17.59
2022-10-05T21:54:36.069Z,17.54
2022-10-05T21:57:04.672Z,17.52
2022-10-05T21:59:35.320Z,17.58
2022-10-05T22:02:03.574Z,17.55
2022-10-05T22:04:31.548Z,17.51
2022-10-05T22:06:59.778Z,17.54
2022-10-05T22:09:27.857Z,17.47
2022-10-05T22:11:57.461Z,17.45
2022-10-05T22:14:25.357Z,17.45
2022-10-05T22:16:54.294Z,17.41
2022-10-05T22:19:22.279Z,17.41
2022-10-05T22:21:50.356Z,17.47
2022-10-05T22:24:18.312Z,17.44
2022-10-05T22:26:49.074Z,17.40
2022-10-05T22:29:21.571Z,17.37
2022-10-05T22:31:50.230Z,17.32
2022-10-05T22:34:19.023Z,17.30
2022-10-05T22:36:47.586Z,17.28
2022-10-05T22:39:15.693Z,17.36
2022-10-05T22:41:43.643Z,17.34
2022-10-05T22:44:11.473Z,17.35
2022-10-05T22:46:41.148Z,17.41
2022-10-05T22:49:09.151Z,17.42
2022-10-05T22:51:37.204Z,17.35
2022-10-05T22:54:05.355Z,17.31
2022-10-05T22:56:33.340Z,17.28
2022-10-05T22:59:01.135Z,17.27
2022-10-05T23:01:29.209Z,17.35
2022-10-05T23:03:58.492Z,17.30
2022-10-05T23:06:27.579Z,17.31
2022-10-05T23:08:56.203Z,17.22
2022-10-05T23:11:26.802Z,17.27
2022-10-05T23:13:56.802Z,17.24
2022-10-05T23:16:26.768Z,17.20
2022-10-05T23:18:59.142Z,17.19
2022-10-05T23:21:30.490Z,17.16
2022-10-05T23:23:58.827Z,17.09
2022-10-05T23:26:26.951Z,16.96
2022-10-05T23:28:54.956Z,16.98
2022-10-05T23:31:25.508Z,16.98
2022-10-05T23:33:54.187Z,16.84
2022-10-05T23:36:25.930Z,16.90
2022-10-05T23:38:54.496Z,16.84
2022-10-05T23:41:22.447Z,16.90
2022-10-05T23:43:50.568Z,16.80
2022-10-05T23:46:18.790Z,16.78
2022-10-05T23:48:46.744Z,16.74
2022-10-05T23:51:15.586Z,16.76
2022-10-05T23:53:45.004Z,16.71
2022-10-05T23:56:13.324Z,16.69
2022-10-05T23:58:41.823Z,16.67
